sensor_id;sensor_type;location;lat;lon;timestamp;temperature;humidity
30385;DHT22;17181;51.002;4.096;2022-10-16T00:00:57;15.30;99.90
30385;DHT22;17181;51.002;4.096;2022-10-16T00:03:23;15.30;99.90
30385;DHT22;17181;51.002;4.096;2022-10-16T00:05:49;15.30;99.90
30385;DHT22;17181;51.002;4.096;2022-10-16T00:08:14;15.30;99.90
30385;DHT22;17181;51.002;4.096;2022-10-16T00:10:40;15.30;99.90
30385;DHT22;17181;51.002;4.096;2022-10-16T00:13:06;15.30;99.90
30385;DHT22;17181;51.002;4.096;2022-10-16T00:15:36;15.30;99.90
30385;DHT22;17181;51.002;4.096;2022-10-16T00:18:04;15.30;99.90
30385;DHT22;17181;51.002;4.096;2022-10-16T00:20:30;15.30;99.90
30385;DHT22;17181;51.002;4.096;2022-10-16T00:22:58;15.30;99.90
30385;DHT22;17181;51.002;4.096;2022-10-16T00:25:24;15.30;99.90
30385;DHT22;17181;51.002;4.096;2022-10-16T00:27:50;15.30;99.90
30385;DHT22;17181;51.002;4.096;2022-10-16T00:30:16;15.30;99.90
30385;DHT22;17181;51.002;4.096;2022-10-16T00:32:42;15.30;99.90
30385;DHT22;17181;51.002;4.096;2022-10-16T00:35:08;15.30;99.90
30385;DHT22;17181;51.002;4.096;2022-10-16T00:37:33;15.30;99.90
30385;DHT22;17181;51.002;4.096;2022-10-16T00:39:59;15.30;99.90
30385;DHT22;17181;51.002;4.096;2022-10-16T00:42:25;15.20;99.90
30385;DHT22;17181;51.002;4.096;2022-10-16T00:44:56;15.20;99.90
30385;DHT22;17181;51.002;4.096;2022-10-16T00:47:43;15.30;99.90
30385;DHT22;17181;51.002;4.096;2022-10-16T00:50:28;15.30;99.90
30385;DHT22;17181;51.002;4.096;2022-10-16T00:52:56;15.20;99.90
30385;DHT22;17181;51.002;4.096;2022-10-16T00:55:23;15.20;99.90
30385;DHT22;17181;51.002;4.096;2022-10-16T00:57:50;15.30;99.90
30385;DHT22;17181;51.002;4.096;2022-10-16T01:00:20;15.20;99.90
30385;DHT22;17181;51.002;4.096;2022-10-16T01:02:58;15.20;99.90
30385;DHT22;17181;51.002;4.096;2022-10-16T01:05:33;15.10;99.90
30385;DHT22;17181;51.002;4.096;2022-10-16T01:08:24;15.20;99.90
30385;DHT22;17181;51.002;4.096;2022-10-16T01:11:30;15.20;99.90
30385;DHT22;17181;51.002;4.096;2022-10-16T01:13:53;15.20;99.90
30385;DHT22;17181;51.002;4.096;2022-10-16T01:21:51;15.10;99.90
30385;DHT22;17181;51.002;4.096;2022-10-16T01:27:28;15.10;99.90
30385;DHT22;17181;51.002;4.096;2022-10-16T01:30:07;15.10;99.90
30385;DHT22;17181;51.002;4.096;2022-10-16T01:32:45;15.10;99.90
30385;DHT22;17181;51.002;4.096;2022-10-16T01:40:32;15.10;99.90
30385;DHT22;17181;51.002;4.096;2022-10-16T01:43:11;15.00;99.90
30385;DHT22;17181;51.002;4.096;2022-10-16T01:45:38;15.00;99.90
30385;DHT22;17181;51.002;4.096;2022-10-16T01:48:06;15.10;99.90
30385;DHT22;17181;51.002;4.096;2022-10-16T01:50:38;15.00;99.90
30385;DHT22;17181;51.002;4.096;2022-10-16T01:53:07;15.00;99.90
30385;DHT22;17181;51.002;4.096;2022-10-16T01:55:39;15.00;99.90
30385;DHT22;17181;51.002;4.096;2022-10-16T07:03:50;14.60;99.90
30385;DHT22;17181;51.002;4.096;2022-10-16T07:06:19;14.70;99.90
30385;DHT22;17181;51.002;4.096;2022-10-16T07:08:46;14.60;99.90
30385;DHT22;17181;51.002;4.096;2022-10-16T07:11:16;14.70;99.90
30385;DHT22;17181;51.002;4.096;2022-10-16T07:13:43;14.70;99.90
30385;DHT22;17181;51.002;4.096;2022-10-16T07:16:12;14.70;99.90
30385;DHT22;17181;51.002;4.096;2022-10-16T07:18:38;14.80;99.90
30385;DHT22;17181;51.002;4.096;2022-10-16T07:21:07;14.80;99.90
30385;DHT22;17181;51.002;4.096;2022-10-16T07:23:33;14.90;99.90
30385;DHT22;17181;51.002;4.096;2022-10-16T07:25:59;14.90;99.90
30385;DHT22;17181;51.002;4.096;2022-10-16T07:28:25;14.90;99.90
30385;DHT22;17181;51.002;4.096;2022-10-16T07:30:51;15.00;99.90
30385;DHT22;17181;51.002;4.096;2022-10-16T07:33:17;15.00;99.90
30385;DHT22;17181;51.002;4.096;2022-10-16T07:35:53;15.10;99.90
30385;DHT22;17181;51.002;4.096;2022-10-16T07:38:20;15.10;99.90
30385;DHT22;17181;51.002;4.096;2022-10-16T07:40:46;15.10;99.90
30385;DHT22;17181;51.002;4.096;2022-10-16T07:43:14;15.20;99.90
30385;DHT22;17181;51.002;4.096;2022-10-16T07:45:50;15.20;99.90
30385;DHT22;17181;51.002;4.096;2022-10-16T07:48:17;15.30;99.90
30385;DHT22;17181;51.002;4.096;2022-10-16T07:50:44;15.30;99.90
30385;DHT22;17181;51.002;4.096;2022-10-16T07:53:10;15.40;99.90
30385;DHT22;17181;51.002;4.096;2022-10-16T07:55:37;15.40;99.90
30385;DHT22;17181;51.002;4.096;2022-10-16T07:58:04;15.50;99.90
30385;DHT22;17181;51.002;4.096;2022-10-16T08:00:30;15.60;99.90
30385;DHT22;17181;51.002;4.096;2022-10-16T08:02:57;15.60;99.90
30385;DHT22;17181;51.002;4.096;2022-10-16T08:05:29;15.60;99.90
30385;DHT22;17181;51.002;4.096;2022-10-16T08:07:57;15.70;99.90
30385;DHT22;17181;51.002;4.096;2022-10-16T08:10:25;15.70;99.90
30385;DHT22;17181;51.002;4.096;2022-10-16T08:12:52;15.80;99.90
30385;DHT22;17181;51.002;4.096;2022-10-16T08:15:19;15.80;99.90
30385;DHT22;17181;51.002;4.096;2022-10-16T08:17:53;15.80;99.90
30385;DHT22;17181;51.002;4.096;2022-10-16T08:20:20;15.90;99.90
30385;DHT22;17181;51.002;4.096;2022-10-16T08:22:46;16.00;99.90
30385;DHT22;17181;51.002;4.096;2022-10-16T08:25:12;16.00;99.90
30385;DHT22;17181;51.002;4.096;2022-10-16T08:27:38;16.10;99.90
30385;DHT22;17181;51.002;4.096;2022-10-16T08:30:04;16.10;99.90
30385;DHT22;17181;51.002;4.096;2022-10-16T08:32:30;16.20;99.90
30385;DHT22;17181;51.002;4.096;2022-10-16T08:34:55;16.20;99.90
30385;DHT22;17181;51.002;4.096;2022-10-16T08:37:21;16.20;99.90
30385;DHT22;17181;51.002;4.096;2022-10-16T08:39:47;16.30;99.90
30385;DHT22;17181;51.002;4.096;2022-10-16T08:48:27;16.40;99.90
30385;DHT22;17181;51.002;4.096;2022-10-16T08:50:55;16.50;99.90
30385;DHT22;17181;51.002;4.096;2022-10-16T08:56:20;16.60;99.90
30385;DHT22;17181;51.002;4.096;2022-10-16T08:58:47;16.60;99.90
30385;DHT22;17181;51.002;4.096;2022-10-16T09:01:17;16.70;99.90
30385;DHT22;17181;51.002;4.096;2022-10-16T09:04:15;16.80;99.90
30385;DHT22;17181;51.002;4.096;2022-10-16T09:12:24;16.90;99.90
30385;DHT22;17181;51.002;4.096;2022-10-16T09:15:17;16.90;99.90
30385;DHT22;17181;51.002;4.096;2022-10-16T09:20:24;17.10;99.90
30385;DHT22;17181;51.002;4.096;2022-10-16T09:23:08;17.10;99.90
30385;DHT22;17181;51.002;4.096;2022-10-16T09:25:39;17.10;99.90
30385;DHT22;17181;51.002;4.096;2022-10-16T09:28:08;17.20;99.90
30385;DHT22;17181;51.002;4.096;2022-10-16T09:30:35;17.20;99.90
30385;DHT22;17181;51.002;4.096;2022-10-16T09:33:01;17.30;99.90
30385;DHT22;17181;51.002;4.096;2022-10-16T09:35:33;17.40;99.90
30385;DHT22;17181;51.002;4.096;2022-10-16T09:38:00;17.50;99.90
30385;DHT22;17181;51.002;4.096;2022-10-16T09:40:37;17.60;99.90
30385;DHT22;17181;51.002;4.096;2022-10-16T09:46:07;17.70;99.90
30385;DHT22;17181;51.002;4.096;2022-10-16T09:48:43;17.80;99.90
30385;DHT22;17181;51.002;4.096;2022-10-16T09:51:36;17.80;99.90
30385;DHT22;17181;51.002;4.096;2022-10-16T09:54:13;17.90;99.90
30385;DHT22;17181;51.002;4.096;2022-10-16T09:56:39;18.00;99.90
30385;DHT22;17181;51.002;4.096;2022-10-16T09:59:16;18.00;99.90
30385;DHT22;17181;51.002;4.096;2022-10-16T10:01:48;18.10;99.90
30385;DHT22;17181;51.002;4.096;2022-10-16T10:04:17;18.20;99.90
30385;DHT22;17181;51.002;4.096;2022-10-16T10:06:55;18.30;99.90
30385;DHT22;17181;51.002;4.096;2022-10-16T10:14:25;18.50;99.90
30385;DHT22;17181;51.002;4.096;2022-10-16T10:17:01;18.50;99.90
30385;DHT22;17181;51.002;4.096;2022-10-16T10:19:28;18.60;99.90
30385;DHT22;17181;51.002;4.096;2022-10-16T10:21:53;18.70;99.90
30385;DHT22;17181;51.002;4.096;2022-10-16T10:24:19;18.80;99.90
30385;DHT22;17181;51.002;4.096;2022-10-16T10:29:47;18.90;99.90
30385;DHT22;17181;51.002;4.096;2022-10-16T10:32:38;19.00;99.90
30385;DHT22;17181;51.002;4.096;2022-10-16T10:35:17;19.10;99.90
30385;DHT22;17181;51.002;4.096;2022-10-16T10:38:11;19.10;99.90
30385;DHT22;17181;51.002;4.096;2022-10-16T10:46:04;19.20;99.90
30385;DHT22;17181;51.002;4.096;2022-10-16T10:54:25;19.20;99.90
30385;DHT22;17181;51.002;4.096;2022-10-16T10:57:09;19.10;99.90
30385;DHT22;17181;51.002;4.096;2022-10-16T11:02:40;19.30;99.90
30385;DHT22;17181;51.002;4.096;2022-10-16T11:05:29;19.40;99.90
30385;DHT22;17181;51.002;4.096;2022-10-16T11:08:16;19.60;99.90
30385;DHT22;17181;51.002;4.096;2022-10-16T11:13:38;19.70;99.90
30385;DHT22;17181;51.002;4.096;2022-10-16T11:16:15;19.70;99.90
30385;DHT22;17181;51.002;4.096;2022-10-16T11:18:52;19.80;99.90
30385;DHT22;17181;51.002;4.096;2022-10-16T11:21:23;19.80;99.90
30385;DHT22;17181;51.002;4.096;2022-10-16T11:24:00;19.80;99.90
30385;DHT22;17181;51.002;4.096;2022-10-16T11:26:30;19.80;99.90
30385;DHT22;17181;51.002;4.096;2022-10-16T11:29:02;19.80;99.90
30385;DHT22;17181;51.002;4.096;2022-10-16T11:34:22;19.90;99.90
30385;DHT22;17181;51.002;4.096;2022-10-16T11:36:57;19.90;99.90
30385;DHT22;17181;51.002;4.096;2022-10-16T11:39:26;19.90;99.90
30385;DHT22;17181;51.002;4.096;2022-10-16T11:47:45;20.10;99.90
30385;DHT22;17181;51.002;4.096;2022-10-16T11:50:28;20.20;99.90
30385;DHT22;17181;51.002;4.096;2022-10-16T11:55:44;20.30;99.60
30385;DHT22;17181;51.002;4.096;2022-10-16T11:58:30;20.20;98.90
30385;DHT22;17181;51.002;4.096;2022-10-16T12:03:48;20.10;99.20
30385;DHT22;17181;51.002;4.096;2022-10-16T12:06:31;20.00;99.50
30385;DHT22;17181;51.002;4.096;2022-10-16T12:09:02;20.00;99.80
30385;DHT22;17181;51.002;4.096;2022-10-16T12:17:20;20.10;99.90
30385;DHT22;17181;51.002;4.096;2022-10-16T12:20:15;20.20;99.80
30385;DHT22;17181;51.002;4.096;2022-10-16T12:50:37;20.80;98.60
30385;DHT22;17181;51.002;4.096;2022-10-16T13:56:16;21.70;98.00
30385;DHT22;17181;51.002;4.096;2022-10-16T13:58:43;21.70;97.90
